createdAt,value
2018-01-18T00:00:42.892Z,31.90
2018-01-18T00:01:42.887Z,25.30
2018-01-18T00:02:42.881Z,31.40
2018-01-18T00:03:42.866Z,33.10
2018-01-18T00:04:42.860Z,25.20
2018-01-18T00:05:42.847Z,24.50
2018-01-18T00:06:42.839Z,31.30
2018-01-18T00:07:42.828Z,28.60
2018-01-18T00:08:42.817Z,27.70
2018-01-18T00:09:42.803Z,24.10
2018-01-18T00:10:42.794Z,22.30
2018-01-18T00:11:42.783Z,24.10
2018-01-18T00:12:42.773Z,32.60
2018-01-18T00:13:42.763Z,27.50
2018-01-18T00:14:42.754Z,27.60
2018-01-18T00:15:42.742Z,24.00
2018-01-18T00:16:42.733Z,26.50
2018-01-18T00:17:42.727Z,24.10
2018-01-18T00:18:42.720Z,28.00
2018-01-18T00:19:42.710Z,25.50
2018-01-18T00:20:42.697Z,22.80
2018-01-18T00:21:42.687Z,28.70
2018-01-18T00:22:42.678Z,24.90
2018-01-18T00:23:42.668Z,24.10
2018-01-18T00:24:42.659Z,27.20
2018-01-18T00:25:42.643Z,23.80
2018-01-18T00:26:42.634Z,23.90
2018-01-18T00:27:42.623Z,26.40
2018-01-18T00:28:42.613Z,33.30
2018-01-18T00:29:42.603Z,25.20
2018-01-18T00:30:42.594Z,22.50
2018-01-18T00:31:42.583Z,29.30
2018-01-18T00:32:42.573Z,24.60
2018-01-18T00:33:42.568Z,25.10
2018-01-18T00:34:42.558Z,24.20
2018-01-18T00:35:42.549Z,25.00
2018-01-18T00:36:42.538Z,25.90
2018-01-18T00:37:42.528Z,22.80
2018-01-18T00:38:42.514Z,24.40
2018-01-18T00:39:42.504Z,21.50
2018-01-18T00:40:42.494Z,26.70
2018-01-18T00:41:42.489Z,23.50
2018-01-18T00:42:42.487Z,29.40
2018-01-18T00:43:42.468Z,25.60
2018-01-18T00:44:42.459Z,24.30
2018-01-18T00:45:42.451Z,27.50
2018-01-18T00:46:42.439Z,30.60
2018-01-18T00:47:42.428Z,25.20
2018-01-18T00:48:42.419Z,21.80
2018-01-18T00:49:42.406Z,24.50
2018-01-18T00:50:42.395Z,25.30
2018-01-18T00:51:42.385Z,26.20
2018-01-18T00:52:42.375Z,26.80
2018-01-18T00:53:42.366Z,28.20
2018-01-18T00:54:42.356Z,20.90
2018-01-18T00:55:42.347Z,25.70
2018-01-18T00:56:42.336Z,26.80
2018-01-18T00:57:42.332Z,25.40
2018-01-18T00:58:42.321Z,20.20
2018-01-18T00:59:42.311Z,26.20
2018-01-18T01:00:42.300Z,28.30
2018-01-18T01:01:42.293Z,26.80
2018-01-18T01:02:42.281Z,23.80
2018-01-18T01:03:42.272Z,29.70
2018-01-18T01:04:42.261Z,25.30
2018-01-18T01:05:42.247Z,23.90
2018-01-18T01:06:42.239Z,26.00
2018-01-18T01:07:42.227Z,27.60
2018-01-18T01:08:42.218Z,24.70
2018-01-18T01:09:42.208Z,23.50
2018-01-18T01:10:42.198Z,22.60
2018-01-18T01:11:42.188Z,23.80
2018-01-18T01:12:42.179Z,23.60
2018-01-18T01:13:42.174Z,20.10
2018-01-18T01:14:42.163Z,32.80
2018-01-18T01:15:42.153Z,26.50
2018-01-18T01:16:42.144Z,26.60
2018-01-18T01:17:42.135Z,26.40
2018-01-18T01:18:42.124Z,29.90
2018-01-18T01:19:42.114Z,28.10
2018-01-18T01:20:42.103Z,24.00
2018-01-18T01:21:42.090Z,23.20
2018-01-18T01:22:42.083Z,21.60
2018-01-18T01:23:42.070Z,28.20
2018-01-18T01:24:42.062Z,26.00
2018-01-18T01:25:42.051Z,25.70
2018-01-18T01:26:42.042Z,22.50
2018-01-18T01:27:42.032Z,23.60
2018-01-18T01:28:42.021Z,31.40
2018-01-18T01:29:42.015Z,27.50
2018-01-18T01:30:42.006Z,24.30
2018-01-18T01:31:41.995Z,22.10
2018-01-18T01:32:41.987Z,20.00
2018-01-18T01:33:41.976Z,25.70
2018-01-18T01:34:41.967Z,27.00
2018-01-18T01:35:41.956Z,29.70
2018-01-18T01:36:41.946Z,30.60
2018-01-18T01:37:41.933Z,26.00
2018-01-18T01:38:41.924Z,21.30
2018-01-18T01:39:41.913Z,24.10
2018-01-18T01:40:41.905Z,21.50
2018-01-18T01:41:41.898Z,29.30
2018-01-18T01:42:41.888Z,25.00
2018-01-18T01:43:41.878Z,19.50
2018-01-18T01:44:41.869Z,25.50
2018-01-18T01:45:41.854Z,30.90
2018-01-18T01:46:41.845Z,24.10
2018-01-18T01:47:41.834Z,19.30
2018-01-18T01:48:41.828Z,29.70
2018-01-18T01:49:41.815Z,27.80
2018-01-18T01:50:41.806Z,26.10
2018-01-18T01:51:41.795Z,25.20
2018-01-18T01:52:41.786Z,22.50
2018-01-18T01:53:41.781Z,21.40
2018-01-18T01:54:41.772Z,30.20
2018-01-18T01:55:41.761Z,28.20
2018-01-18T01:56:41.751Z,27.90
2018-01-18T01:57:41.741Z,24.80
2018-01-18T01:58:41.734Z,26.30
2018-01-18T01:59:41.722Z,27.60
2018-01-18T02:00:41.713Z,21.20
2018-01-18T02:01:41.698Z,24.00
2018-01-18T02:02:41.689Z,22.50
2018-01-18T02:03:41.679Z,26.00
2018-01-18T02:04:41.669Z,23.60
2018-01-18T02:05:41.659Z,24.60
2018-01-18T02:06:41.649Z,25.00
2018-01-18T02:07:41.640Z,20.20
2018-01-18T02:08:41.630Z,26.40
2018-01-18T02:09:41.624Z,24.40
2018-01-18T02:10:41.615Z,21.60
2018-01-18T02:11:41.606Z,23.00
2018-01-18T02:12:41.595Z,28.20
2018-01-18T02:13:41.587Z,23.20
2018-01-18T02:14:41.576Z,24.90
2018-01-18T02:15:41.565Z,30.10
2018-01-18T02:16:41.555Z,23.00
2018-01-18T02:17:41.544Z,22.10
2018-01-18T02:18:41.533Z,24.30
2018-01-18T02:19:41.523Z,23.60
2018-01-18T02:20:41.512Z,37.00
2018-01-18T02:21:41.504Z,23.40
2018-01-18T02:22:41.493Z,23.50
2018-01-18T02:23:41.483Z,25.30
2018-01-18T02:24:41.473Z,24.10
2018-01-18T02:25:41.467Z,30.30
2018-01-18T02:26:41.460Z,22.70
2018-01-18T02:27:41.448Z,25.10
2018-01-18T02:28:41.439Z,21.90
2018-01-18T02:29:41.432Z,23.80
2018-01-18T02:30:41.434Z,24.70
2018-01-18T02:31:41.409Z,27.70
2018-01-18T02:32:41.400Z,23.90
2018-01-18T02:33:41.386Z,21.40
2018-01-18T02:34:41.377Z,18.90
2018-01-18T02:35:41.366Z,21.00
2018-01-18T02:36:41.357Z,23.80
2018-01-18T02:37:41.349Z,26.00
2018-01-18T02:38:41.339Z,19.70
2018-01-18T02:39:41.328Z,26.30
2018-01-18T02:40:41.318Z,20.50
2018-01-18T02:41:41.314Z,20.90
2018-01-18T02:42:41.305Z,23.70
2018-01-18T02:43:41.293Z,24.40
2018-01-18T02:44:41.285Z,24.30
2018-01-18T02:45:41.270Z,22.60
2018-01-18T02:46:41.264Z,22.10
2018-01-18T02:47:41.250Z,18.50
2018-01-18T02:48:41.245Z,17.50
2018-01-18T02:49:41.236Z,20.20
2018-01-18T02:50:41.227Z,20.30
2018-01-18T02:51:41.216Z,21.90
2018-01-18T02:52:41.206Z,19.60
2018-01-18T02:53:41.197Z,24.00
2018-01-18T02:54:41.188Z,17.90
2018-01-18T02:55:41.177Z,19.90
2018-01-18T02:56:41.167Z,21.60
2018-01-18T02:57:41.154Z,15.80
2018-01-18T02:58:41.144Z,13.60
2018-01-18T02:59:41.135Z,17.90
2018-01-18T03:00:41.124Z,14.50
2018-01-18T03:01:41.115Z,19.00
2018-01-18T03:02:41.107Z,14.30
2018-01-18T03:03:41.095Z,18.50
2018-01-18T03:04:41.087Z,13.50
2018-01-18T03:05:41.080Z,14.20
2018-01-18T03:06:41.072Z,19.60
2018-01-18T03:07:41.061Z,14.50
2018-01-18T03:08:41.051Z,19.50
2018-01-18T03:09:41.041Z,16.70
2018-01-18T03:10:41.032Z,13.60
2018-01-18T03:11:41.022Z,14.40
2018-01-18T03:12:41.013Z,17.80
2018-01-18T03:13:40.999Z,20.20
2018-01-18T03:14:40.988Z,20.10
2018-01-18T03:15:40.978Z,15.60
2018-01-18T03:16:40.968Z,20.90
2018-01-18T03:17:40.958Z,15.70
2018-01-18T03:18:40.949Z,16.90
2018-01-18T03:19:40.939Z,13.80
2018-01-18T03:20:40.929Z,13.60
2018-01-18T03:21:40.924Z,16.70
2018-01-18T03:22:40.914Z,16.50
2018-01-18T03:23:40.903Z,16.70
2018-01-18T03:24:40.893Z,13.70
2018-01-18T03:25:40.884Z,14.70
2018-01-18T03:26:40.873Z,14.90
2018-01-18T03:27:40.864Z,15.80
2018-01-18T03:28:40.855Z,16.40
2018-01-18T03:29:40.843Z,14.40
2018-01-18T03:30:40.832Z,16.80
2018-01-18T03:31:40.820Z,16.20
2018-01-18T03:32:40.809Z,11.40
2018-01-18T03:33:40.800Z,14.50
2018-01-18T03:34:40.790Z,14.20
2018-01-18T03:35:40.778Z,11.10
2018-01-18T03:36:40.770Z,11.10
2018-01-18T03:37:40.766Z,16.60
2018-01-18T03:38:40.753Z,12.50
2018-01-18T03:39:40.745Z,13.60
2018-01-18T03:40:40.733Z,11.40
2018-01-18T03:41:40.723Z,11.70
2018-01-18T03:42:40.712Z,11.50
2018-01-18T03:43:40.703Z,16.30
2018-01-18T03:44:40.692Z,12.80
2018-01-18T03:45:40.678Z,13.70
2018-01-18T03:46:40.667Z,9.70
2018-01-18T03:47:40.657Z,13.90
2018-01-18T03:48:40.647Z,7.50
2018-01-18T03:49:40.641Z,11.40
2018-01-18T03:50:40.630Z,9.50
2018-01-18T03:51:40.620Z,11.80
2018-01-18T03:52:40.609Z,10.90
2018-01-18T03:53:40.596Z,13.80
2018-01-18T03:54:40.585Z,10.40
2018-01-18T03:55:40.577Z,15.70
2018-01-18T03:56:40.564Z,16.00
2018-01-18T03:57:40.552Z,8.90
2018-01-18T03:58:40.542Z,12.80
2018-01-18T03:59:40.531Z,12.50
2018-01-18T04:00:40.520Z,8.70
2018-01-18T04:01:40.516Z,9.30
2018-01-18T04:02:40.504Z,12.20
2018-01-18T04:03:40.494Z,12.70
2018-01-18T04:04:40.483Z,10.30
2018-01-18T04:05:40.473Z,11.50
2018-01-18T04:06:40.461Z,7.50
2018-01-18T04:07:40.450Z,9.40
2018-01-18T04:08:40.438Z,11.10
2018-01-18T04:09:40.424Z,9.30
2018-01-18T04:10:40.413Z,13.20
2018-01-18T04:11:40.401Z,13.60
2018-01-18T04:12:40.395Z,9.90
2018-01-18T04:13:40.379Z,10.40
2018-01-18T04:14:40.370Z,11.60
2018-01-18T04:15:40.357Z,13.10
2018-01-18T04:16:40.346Z,10.50
2018-01-18T04:17:40.338Z,10.80
2018-01-18T04:18:40.328Z,10.70
2018-01-18T04:19:40.317Z,9.00
2018-01-18T04:20:40.305Z,12.20
2018-01-18T04:21:40.294Z,14.90
2018-01-18T04:22:40.283Z,8.00
2018-01-18T04:23:40.270Z,11.20
2018-01-18T04:24:40.259Z,10.80
2018-01-18T04:25:40.244Z,7.20
2018-01-18T04:26:40.233Z,8.80
2018-01-18T04:27:40.221Z,9.00
2018-01-18T04:28:40.209Z,11.50
2018-01-18T04:29:40.198Z,10.20
2018-01-18T04:30:40.188Z,10.10
2018-01-18T04:31:40.175Z,11.40
2018-01-18T04:32:40.163Z,9.00
2018-01-18T04:33:40.156Z,8.60
2018-01-18T04:34:40.146Z,11.10
2018-01-18T04:35:40.133Z,8.80
2018-01-18T04:36:40.122Z,8.10
2018-01-18T04:37:40.110Z,10.60
2018-01-18T04:38:40.099Z,8.60
2018-01-18T04:39:40.086Z,8.10
2018-01-18T04:40:40.075Z,11.50
2018-01-18T04:41:40.059Z,9.30
2018-01-18T04:42:40.048Z,12.10
2018-01-18T04:43:40.036Z,12.50
2018-01-18T04:44:40.025Z,12.60
2018-01-18T04:45:40.015Z,11.30
2018-01-18T04:46:40.001Z,10.80
2018-01-18T04:47:39.994Z,9.40
2018-01-18T04:48:39.977Z,11.00
2018-01-18T04:49:39.970Z,12.20
2018-01-18T04:50:39.959Z,9.40
2018-01-18T04:51:39.948Z,8.20
2018-01-18T04:52:39.936Z,8.50
2018-01-18T04:53:39.919Z,8.60
2018-01-18T04:54:39.908Z,10.60
2018-01-18T04:55:39.896Z,11.70
2018-01-18T04:56:39.885Z,8.00
2018-01-18T04:57:39.878Z,7.40
2018-01-18T04:58:39.866Z,10.00
2018-01-18T04:59:39.853Z,11.00
2018-01-18T05:00:39.842Z,9.40
2018-01-18T05:01:39.831Z,7.80
2018-01-18T05:02:39.827Z,9.30
2018-01-18T05:03:39.806Z,10.30
2018-01-18T05:04:39.795Z,12.40
2018-01-18T05:05:39.780Z,10.20
2018-01-18T05:06:39.769Z,11.30
2018-01-18T05:07:39.756Z,9.90
2018-01-18T05:08:39.744Z,11.50
2018-01-18T05:09:39.733Z,9.70
2018-01-18T05:10:39.722Z,11.60
2018-01-18T05:11:39.710Z,10.20
2018-01-18T05:12:39.698Z,10.80
2018-01-18T05:13:39.691Z,11.90
2018-01-18T05:14:39.680Z,13.10
2018-01-18T05:15:39.667Z,12.50
2018-01-18T05:16:39.657Z,10.30
2018-01-18T05:17:39.646Z,12.40
2018-01-18T05:18:39.633Z,9.40
2018-01-18T05:19:39.621Z,9.90
2018-01-18T05:20:39.610Z,10.00
2018-01-18T05:21:39.594Z,11.60
2018-01-18T05:22:39.583Z,10.20
2018-01-18T05:23:39.571Z,12.00
2018-01-18T05:24:39.561Z,7.90
2018-01-18T05:25:39.548Z,9.80
2018-01-18T05:26:39.537Z,8.40
2018-01-18T05:27:39.525Z,9.00
2018-01-18T05:28:39.514Z,7.90
2018-01-18T05:29:39.513Z,9.30
2018-01-18T05:30:39.495Z,10.10
2018-01-18T05:31:39.484Z,10.80
2018-01-18T05:32:39.472Z,9.70
2018-01-18T05:33:39.461Z,8.00
2018-01-18T05:34:39.450Z,10.10
2018-01-18T05:35:39.439Z,7.70
2018-01-18T05:36:39.453Z,9.80
2018-01-18T05:37:39.411Z,7.20
2018-01-18T05:38:39.401Z,10.50
2018-01-18T05:39:39.389Z,8.10
2018-01-18T05:40:39.377Z,8.30
2018-01-18T05:41:39.365Z,8.70
2018-01-18T05:42:39.355Z,5.80
2018-01-18T05:43:39.342Z,8.10
2018-01-18T05:44:39.332Z,5.00
2018-01-18T05:45:39.324Z,13.20
2018-01-18T05:46:39.314Z,6.50
2018-01-18T05:47:39.301Z,4.70
2018-01-18T05:48:39.290Z,5.60
2018-01-18T05:49:39.279Z,4.10
2018-01-18T05:50:39.269Z,4.30
2018-01-18T05:51:39.256Z,4.80
2018-01-18T05:52:39.245Z,4.30
2018-01-18T05:53:39.230Z,4.50
2018-01-18T05:54:39.219Z,5.10
2018-01-18T05:55:39.207Z,4.30
2018-01-18T05:56:39.196Z,3.40
2018-01-18T05:57:39.189Z,3.00
2018-01-18T05:58:39.178Z,2.80
2018-01-18T05:59:39.166Z,2.60
2018-01-18T06:00:39.156Z,3.40
2018-01-18T06:01:39.140Z,3.70
2018-01-18T06:02:39.128Z,2.80
2018-01-18T06:03:39.118Z,3.10
2018-01-18T06:04:39.123Z,3.00
2018-01-18T06:05:39.096Z,3.70
2018-01-18T06:06:39.085Z,2.90
2018-01-18T06:07:39.073Z,2.70
2018-01-18T06:08:39.063Z,3.10
2018-01-18T06:09:39.056Z,2.30
2018-01-18T06:10:39.044Z,2.00
2018-01-18T06:11:39.033Z,2.20
2018-01-18T06:12:39.023Z,2.80
2018-01-18T06:13:39.024Z,1.90
2018-01-18T06:14:39.003Z,5.50
2018-01-18T06:15:38.989Z,1.60
2018-01-18T06:16:38.979Z,1.80
2018-01-18T06:17:38.964Z,1.70
2018-01-18T06:18:38.953Z,1.70
2018-01-18T06:19:38.942Z,1.60
2018-01-18T06:20:38.931Z,1.60
2018-01-18T06:21:38.921Z,4.30
2018-01-18T06:22:38.913Z,1.80
2018-01-18T06:23:38.900Z,1.90
2018-01-18T06:24:38.891Z,1.80
2018-01-18T06:25:38.883Z,1.90
2018-01-18T06:26:38.873Z,1.60
2018-01-18T06:27:38.862Z,3.90
2018-01-18T06:28:38.852Z,1.60
2018-01-18T06:29:38.841Z,4.30
2018-01-18T06:30:38.831Z,1.80
2018-01-18T06:31:38.820Z,1.50
2018-01-18T06:32:38.809Z,2.30
2018-01-18T06:33:38.799Z,1.60
2018-01-18T06:34:38.790Z,1.60
2018-01-18T06:35:38.774Z,2.70
2018-01-18T06:36:38.764Z,1.30
2018-01-18T06:37:38.754Z,1.50
2018-01-18T06:38:38.744Z,2.10
2018-01-18T06:39:38.733Z,1.80
2018-01-18T06:40:38.723Z,2.20
2018-01-18T06:41:38.718Z,3.40
2018-01-18T06:42:38.709Z,1.70
2018-01-18T06:43:38.697Z,2.10
2018-01-18T06:44:38.688Z,2.10
2018-01-18T06:45:38.678Z,1.80
2018-01-18T06:46:38.670Z,1.90
2018-01-18T06:47:38.656Z,1.70
2018-01-18T06:48:38.648Z,2.70
2018-01-18T06:49:38.632Z,3.70
2018-01-18T06:50:38.623Z,1.60
2018-01-18T06:51:38.612Z,1.90
2018-01-18T06:52:38.602Z,2.60
2018-01-18T06:53:38.596Z,4.30
2018-01-18T06:54:38.582Z,3.50
2018-01-18T06:55:38.572Z,2.50
2018-01-18T06:56:38.562Z,2.70
2018-01-18T06:57:38.557Z,2.10
2018-01-18T06:58:38.549Z,2.10
2018-01-18T06:59:38.537Z,2.40
2018-01-18T07:00:38.527Z,3.50
2018-01-18T07:01:38.514Z,2.30
2018-01-18T07:02:38.504Z,1.60
2018-01-18T07:03:38.493Z,2.00
2018-01-18T07:04:38.484Z,3.10
2018-01-18T07:05:38.480Z,2.00
2018-01-18T07:06:38.469Z,1.70
2018-01-18T07:07:38.459Z,5.40
2018-01-18T07:08:38.449Z,1.80
2018-01-18T07:09:38.439Z,2.00
2018-01-18T07:10:38.431Z,2.20
2018-01-18T07:11:38.419Z,2.00
2018-01-18T07:12:38.412Z,2.30
2018-01-18T07:13:38.396Z,2.10
2018-01-18T07:14:38.388Z,2.10
2018-01-18T07:15:38.378Z,2.60
2018-01-18T07:16:38.368Z,2.10
2018-01-18T07:17:38.358Z,3.10
2018-01-18T07:18:38.350Z,2.70
2018-01-18T07:19:38.338Z,3.20
2018-01-18T07:20:38.329Z,2.90
2018-01-18T07:21:38.324Z,4.00
2018-01-18T07:22:38.314Z,3.50
2018-01-18T07:23:38.305Z,3.80
2018-01-18T07:24:38.296Z,2.80
2018-01-18T07:25:38.287Z,1.80
2018-01-18T07:26:38.277Z,2.50
2018-01-18T07:27:38.267Z,3.80
2018-01-18T07:28:38.257Z,2.30
2018-01-18T07:29:38.244Z,3.30
2018-01-18T07:30:38.236Z,4.20
2018-01-18T07:31:38.224Z,3.30
2018-01-18T07:32:38.215Z,3.10
2018-01-18T07:33:38.210Z,5.60
2018-01-18T07:34:38.197Z,3.50
2018-01-18T07:35:38.186Z,3.70
2018-01-18T07:36:38.177Z,3.90
2018-01-18T07:37:38.172Z,5.30
2018-01-18T07:38:38.164Z,4.80
2018-01-18T07:39:38.154Z,5.20
2018-01-18T07:40:38.144Z,4.30
2018-01-18T07:41:38.137Z,4.40
2018-01-18T07:42:38.127Z,5.50
2018-01-18T07:43:38.117Z,5.40
2018-01-18T07:44:38.107Z,4.90
2018-01-18T07:45:38.095Z,5.00
2018-01-18T07:46:38.086Z,4.30
2018-01-18T07:47:38.074Z,8.10
2018-01-18T07:48:38.066Z,4.80
2018-01-18T07:49:38.058Z,5.60
2018-01-18T07:50:38.047Z,5.50
2018-01-18T07:51:38.038Z,5.60
2018-01-18T07:52:38.031Z,7.20
2018-01-18T07:53:38.025Z,8.30
2018-01-18T07:54:38.016Z,6.00
2018-01-18T07:55:38.061Z,4.00
2018-01-18T07:56:37.999Z,4.50
2018-01-18T07:57:37.989Z,8.20
2018-01-18T07:58:37.979Z,5.30
2018-01-18T07:59:37.969Z,5.80
2018-01-18T08:00:37.961Z,4.20
2018-01-18T08:01:37.949Z,6.40
2018-01-18T08:02:37.939Z,6.80
2018-01-18T08:03:37.931Z,8.30
2018-01-18T08:04:37.921Z,4.40
2018-01-18T08:05:37.918Z,6.20
2018-01-18T08:06:37.904Z,11.10
2018-01-18T08:07:37.894Z,5.30
2018-01-18T08:08:37.885Z,4.10
2018-01-18T08:09:37.881Z,5.20
2018-01-18T08:10:37.872Z,9.30
2018-01-18T08:11:37.885Z,6.40
2018-01-18T08:12:37.855Z,6.50
2018-01-18T08:13:37.846Z,4.50
2018-01-18T08:14:37.837Z,5.70
2018-01-18T08:15:37.830Z,4.10
2018-01-18T08:16:37.820Z,5.60
2018-01-18T08:17:37.808Z,3.40
2018-01-18T08:18:37.799Z,9.70
2018-01-18T08:19:37.790Z,7.50
2018-01-18T08:20:37.782Z,5.20
2018-01-18T08:21:37.773Z,6.00
2018-01-18T08:22:37.766Z,6.60
2018-01-18T08:23:37.756Z,4.90
2018-01-18T08:24:37.748Z,7.60
2018-01-18T08:25:37.744Z,4.80
2018-01-18T08:26:37.735Z,5.00
2018-01-18T08:27:37.727Z,9.90
2018-01-18T08:28:37.718Z,8.80
2018-01-18T08:29:37.710Z,7.90
2018-01-18T08:30:37.703Z,5.40
2018-01-18T08:31:37.740Z,6.30
2018-01-18T08:32:37.686Z,10.50
2018-01-18T08:33:37.672Z,7.70
2018-01-18T08:34:37.664Z,7.10
2018-01-18T08:35:37.657Z,8.80
2018-01-18T08:36:37.649Z,7.50
2018-01-18T08:37:37.640Z,8.60
2018-01-18T08:38:37.633Z,6.40
2018-01-18T08:39:37.623Z,10.10
2018-01-18T08:40:37.615Z,6.90
2018-01-18T08:41:37.611Z,7.30
2018-01-18T08:42:37.605Z,9.00
2018-01-18T08:43:37.595Z,10.20
2018-01-18T08:44:37.588Z,7.20
2018-01-18T08:45:37.581Z,9.10
2018-01-18T08:46:37.572Z,9.50
2018-01-18T08:47:37.565Z,10.20
2018-01-18T08:48:37.558Z,13.60
2018-01-18T08:49:37.546Z,11.50
2018-01-18T08:50:37.538Z,12.70
2018-01-18T08:51:37.530Z,8.70
2018-01-18T08:52:37.522Z,10.80
2018-01-18T08:53:37.514Z,11.70
2018-01-18T08:54:37.508Z,13.20
2018-01-18T08:55:37.499Z,13.40
2018-01-18T08:56:37.492Z,13.60
2018-01-18T08:57:37.488Z,15.10
2018-01-18T08:58:37.484Z,12.90
2018-01-18T08:59:37.474Z,15.40
2018-01-18T09:00:37.470Z,14.50
2018-01-18T09:01:37.459Z,15.60
2018-01-18T09:02:37.452Z,17.50
2018-01-18T09:03:37.444Z,19.40
2018-01-18T09:04:37.438Z,16.00
2018-01-18T09:05:37.426Z,17.70
2018-01-18T09:06:37.419Z,16.40
2018-01-18T09:07:37.411Z,14.50
2018-01-18T09:08:37.404Z,23.50
2018-01-18T09:09:37.402Z,19.10
2018-01-18T09:10:37.394Z,24.50
2018-01-18T09:11:37.386Z,18.40
2018-01-18T09:12:37.379Z,16.30
2018-01-18T09:13:37.368Z,22.10
2018-01-18T09:14:37.362Z,18.60
2018-01-18T09:15:37.353Z,29.70
2018-01-18T09:16:37.346Z,19.30
2018-01-18T09:17:37.340Z,21.30
2018-01-18T09:18:37.334Z,18.20
2018-01-18T09:19:37.325Z,20.20
2018-01-18T09:20:37.320Z,21.40
2018-01-18T09:21:37.315Z,23.20
2018-01-18T09:22:37.309Z,22.10
2018-01-18T09:23:37.301Z,23.30
2018-01-18T09:24:37.294Z,22.20
2018-01-18T09:25:37.286Z,22.80
2018-01-18T09:26:37.279Z,19.70
2018-01-18T09:27:37.271Z,26.10
2018-01-18T09:28:37.264Z,23.20
2018-01-18T09:29:37.254Z,24.30
2018-01-18T09:30:37.248Z,20.90
2018-01-18T09:31:37.240Z,23.90
2018-01-18T09:32:37.234Z,19.90
2018-01-18T09:33:37.228Z,27.00
2018-01-18T09:34:37.220Z,21.80
2018-01-18T09:35:37.212Z,21.30
2018-01-18T09:36:37.205Z,20.70
2018-01-18T09:37:37.207Z,21.40
2018-01-18T09:38:37.196Z,23.80
2018-01-18T09:39:37.188Z,20.90
2018-01-18T09:40:37.181Z,22.70
2018-01-18T09:41:37.173Z,26.20
2018-01-18T09:42:37.166Z,25.30
2018-01-18T09:43:37.160Z,27.50
2018-01-18T09:44:37.153Z,21.80
2018-01-18T09:45:37.142Z,26.90
2018-01-18T09:46:37.135Z,19.30
2018-01-18T09:47:37.129Z,27.30
2018-01-18T09:48:37.121Z,28.50
2018-01-18T09:49:37.124Z,26.50
2018-01-18T09:50:37.108Z,20.80
2018-01-18T09:51:37.101Z,23.90
2018-01-18T09:52:37.094Z,18.60
2018-01-18T09:53:37.093Z,17.00
2018-01-18T09:54:37.087Z,17.20
2018-01-18T09:55:37.080Z,19.50
2018-01-18T09:56:37.073Z,18.00
2018-01-18T09:57:37.067Z,15.90
2018-01-18T09:58:37.060Z,15.60
2018-01-18T09:59:37.053Z,17.90
2018-01-18T10:00:37.047Z,15.00
2018-01-18T10:01:37.037Z,11.10
2018-01-18T10:02:37.031Z,15.70
2018-01-18T10:03:37.041Z,18.30
2018-01-18T10:04:37.018Z,15.70
2018-01-18T10:05:37.011Z,16.20
2018-01-18T10:06:37.006Z,14.10
2018-01-18T10:07:36.999Z,16.00
2018-01-18T10:08:36.994Z,14.40
2018-01-18T10:09:36.998Z,14.10
2018-01-18T10:10:36.987Z,14.00
2018-01-18T10:11:36.988Z,13.50
2018-01-18T10:12:36.974Z,12.80
2018-01-18T10:13:36.964Z,12.80
2018-01-18T10:14:36.960Z,21.60
2018-01-18T10:15:36.952Z,16.40
2018-01-18T10:16:36.946Z,15.80
2018-01-18T10:17:36.945Z,16.40
2018-01-18T10:18:36.939Z,14.30
2018-01-18T10:19:36.934Z,17.80
2018-01-18T10:20:36.925Z,15.80
2018-01-18T10:21:36.920Z,16.10
2018-01-18T10:22:36.924Z,21.60
2018-01-18T10:23:36.926Z,15.90
2018-01-18T10:24:36.908Z,16.60
2018-01-18T10:25:36.891Z,18.50
2018-01-18T10:26:36.900Z,17.10
2018-01-18T10:27:36.876Z,16.80
2018-01-18T10:28:36.871Z,13.80
2018-01-18T10:29:36.866Z,15.70
2018-01-18T10:30:36.859Z,16.70
2018-01-18T10:31:36.850Z,16.50
2018-01-18T10:32:36.844Z,16.20
2018-01-18T10:33:36.841Z,21.40
2018-01-18T10:34:36.835Z,15.00
2018-01-18T10:35:36.828Z,13.80
2018-01-18T10:36:36.822Z,11.80
2018-01-18T10:37:36.815Z,13.00
2018-01-18T10:38:36.808Z,11.40
2018-01-18T10:39:36.826Z,13.60
2018-01-18T10:40:36.795Z,12.70
2018-01-18T10:41:36.784Z,13.80
2018-01-18T10:42:36.779Z,19.30
2018-01-18T10:43:36.771Z,10.80
2018-01-18T10:44:36.794Z,18.30
2018-01-18T10:45:36.759Z,14.10
2018-01-18T10:46:36.754Z,13.40
2018-01-18T10:47:36.746Z,9.80
2018-01-18T10:48:36.740Z,12.00
2018-01-18T10:49:36.739Z,10.30
2018-01-18T10:50:36.733Z,10.90
2018-01-18T10:51:36.724Z,9.10
2018-01-18T10:52:36.718Z,14.90
2018-01-18T10:53:36.713Z,10.40
2018-01-18T10:54:36.706Z,14.70
2018-01-18T10:55:36.699Z,18.10
2018-01-18T10:56:36.693Z,14.00
2018-01-18T10:57:36.684Z,8.80
2018-01-18T10:58:36.676Z,12.90
2018-01-18T10:59:36.670Z,10.80
2018-01-18T11:00:36.662Z,9.80
2018-01-18T11:01:36.656Z,11.30
2018-01-18T11:02:36.650Z,13.60
2018-01-18T11:03:36.643Z,13.60
2018-01-18T11:04:36.635Z,11.60
2018-01-18T11:05:36.635Z,13.90
2018-01-18T11:06:36.627Z,13.50
2018-01-18T11:07:36.619Z,11.00
2018-01-18T11:08:36.613Z,11.90
2018-01-18T11:09:36.605Z,15.90
2018-01-18T11:10:36.598Z,11.20
2018-01-18T11:11:36.590Z,12.80
2018-01-18T11:12:36.584Z,11.70
2018-01-18T11:13:36.573Z,10.00
2018-01-18T11:14:36.566Z,8.60
2018-01-18T11:15:36.558Z,8.20
2018-01-18T11:16:36.556Z,11.20
2018-01-18T11:17:36.548Z,10.00
2018-01-18T11:18:36.541Z,10.60
2018-01-18T11:19:36.535Z,7.90
2018-01-18T11:20:36.526Z,11.10
2018-01-18T11:21:36.517Z,11.30
2018-01-18T11:22:36.507Z,12.80
2018-01-18T11:23:36.499Z,10.10
2018-01-18T11:24:36.491Z,8.90
2018-01-18T11:25:36.483Z,12.80
2018-01-18T11:26:36.480Z,8.00
2018-01-18T11:27:36.468Z,12.50
2018-01-18T11:28:36.460Z,10.90
2018-01-18T11:29:36.458Z,10.20
2018-01-18T11:30:36.450Z,10.40
2018-01-18T11:31:36.443Z,11.60
2018-01-18T11:32:36.434Z,8.40
2018-01-18T11:33:36.428Z,9.50
2018-01-18T11:34:36.419Z,13.60
2018-01-18T11:35:36.411Z,10.30
2018-01-18T11:36:36.404Z,10.10
2018-01-18T11:37:36.391Z,13.50
2018-01-18T11:38:36.384Z,12.40
2018-01-18T11:39:36.375Z,11.90
2018-01-18T11:40:36.368Z,18.70
2018-01-18T11:41:36.360Z,11.20
2018-01-18T11:42:36.353Z,12.90
2018-01-18T11:43:36.344Z,8.50
2018-01-18T11:44:36.336Z,13.80
2018-01-18T11:45:36.335Z,12.80
2018-01-18T11:46:36.327Z,8.80
2018-01-18T11:47:36.316Z,12.60
2018-01-18T11:48:36.309Z,8.30
2018-01-18T11:49:36.302Z,9.30
2018-01-18T11:50:36.297Z,8.70
2018-01-18T11:51:36.284Z,10.90
2018-01-18T11:52:36.277Z,7.80
2018-01-18T11:53:36.265Z,11.30
2018-01-18T11:54:36.256Z,10.50
2018-01-18T11:55:36.247Z,13.30
2018-01-18T11:56:36.241Z,11.60
2018-01-18T11:57:36.232Z,11.00
2018-01-18T11:58:36.223Z,9.20
2018-01-18T11:59:36.217Z,13.30
2018-01-18T12:00:36.207Z,9.50
2018-01-18T12:01:36.204Z,10.20
2018-01-18T12:02:36.198Z,11.60
2018-01-18T12:03:36.190Z,9.10
2018-01-18T12:04:36.178Z,10.80
2018-01-18T12:05:36.171Z,11.80
2018-01-18T12:06:36.161Z,8.30
2018-01-18T12:07:36.153Z,9.80
2018-01-18T12:08:36.144Z,10.80
2018-01-18T12:09:36.132Z,10.70
2018-01-18T12:10:36.125Z,11.80
2018-01-18T12:11:36.115Z,8.10
2018-01-18T12:12:36.108Z,10.50
2018-01-18T12:13:36.099Z,13.40
2018-01-18T12:14:36.091Z,9.10
2018-01-18T12:15:36.081Z,9.00
2018-01-18T12:16:36.073Z,13.00
2018-01-18T12:17:36.070Z,13.30
2018-01-18T12:18:36.062Z,9.90
2018-01-18T12:19:36.052Z,12.00
2018-01-18T12:20:36.045Z,14.70
2018-01-18T12:21:36.036Z,11.90
2018-01-18T12:22:36.028Z,16.80
2018-01-18T12:23:36.019Z,14.20
2018-01-18T12:24:36.012Z,11.10
2018-01-18T12:25:35.999Z,10.60
2018-01-18T12:26:35.993Z,12.00
2018-01-18T12:27:35.983Z,15.30
2018-01-18T12:28:35.974Z,11.70
2018-01-18T12:29:35.966Z,11.20
2018-01-18T12:30:35.958Z,22.80
2018-01-18T12:31:35.949Z,16.00
2018-01-18T12:32:35.942Z,11.80
2018-01-18T12:33:35.938Z,14.00
2018-01-18T12:34:35.929Z,23.00
2018-01-18T12:35:35.921Z,18.30
2018-01-18T12:36:35.913Z,31.30
2018-01-18T12:37:35.905Z,24.20
2018-01-18T12:38:35.896Z,16.80
2018-01-18T12:39:35.887Z,24.30
2018-01-18T12:40:35.883Z,17.80
2018-01-18T12:41:35.868Z,14.50
2018-01-18T12:42:35.860Z,18.60
2018-01-18T12:43:35.850Z,13.80
2018-01-18T12:44:35.842Z,9.80
2018-01-18T12:45:35.840Z,16.50
2018-01-18T12:46:35.827Z,9.90
2018-01-18T12:47:35.818Z,9.70
2018-01-18T12:48:35.810Z,15.30
2018-01-18T12:49:35.807Z,12.20
2018-01-18T12:50:35.798Z,11.80
2018-01-18T12:51:35.790Z,12.70
2018-01-18T12:52:35.781Z,13.30
2018-01-18T12:53:35.775Z,11.30
2018-01-18T12:54:35.765Z,12.50
2018-01-18T12:55:35.756Z,13.70
2018-01-18T12:56:35.750Z,20.10
2018-01-18T12:57:35.737Z,16.10
2018-01-18T12:58:35.728Z,15.60
2018-01-18T12:59:35.722Z,10.20
2018-01-18T13:00:35.712Z,11.20
2018-01-18T13:01:35.706Z,17.20